Terminal Aerodrome Forecast
Issued by NWS

Home | Current Version | Previous Version | Text Only | Print | Product List | Glossary On
Versions: 1 2 3 4 5 6 7 8 9 10 11 12 13 14
365
FTUS45 KFGZ 221740
TAFGCN
TAF
KGCN 221740Z 2218/2318 21012G20KT P6SM SCT035 BKN050
      TEMPO 2218/2222 VRB20G30KT 5SM TSRA OVC035CB
     FM222200 22010KT P6SM VCSH BKN035 OVC060
      TEMPO 2222/2302 5SM -SHRA BR SCT020 OVC030
     FM230600 VRB04KT 6SM -SHRA SCT020 BKN030=

USA.gov is the U.S. government's official web portal to all federal, state and local government web resources and services.